YYW weather

Armstrong Airport
Armstrong, Ontario, Canada

Public forecast

Using degrees Celsius for public forecast. Weather courtesy of forecast.io.

Current aviation weather report (METAR) for Armstrong Airport

Retrieved 2020/06/05 02:00 UTC (49 minutes ago):

CYYW 050200Z AUTO 14004KT 9SM BKN110 OVC140 14/11 A2965 RMK SLP039 DENSITY ALT 1400FT

Closest aviation forecast (TAF) to Armstrong Airport

Closest forecast is Geraldton Greenstone Regional Airport, 82.0 nm (151.8 km) ESE. Retrieved 2020-06-05 02:42 UTC (7 minutes ago):

TAF CYGQ 050138Z 0502/0514 18005KT P6SM FEW100 FM050300 VRB03KT P6SM BKN100 PROB30 0504/0509 2SM BR FM050900 VRB03KT 6SM BR FEW100 TEMPO 0509/0513 2SM BR PROB40 0509/0513 1/2SM FG VV002 RMK NXT FCST BY 050800Z